Time;durP1;ratioP1;P1;durP2;ratioP2;P2;SDS_P1;SDS_P2;PMS_P1;PMS_P2;Temp;Humidity;BMP_temperature;BMP_pressure;BME280_temperature;BME280_humidity;BME280_pressure;Samples;Min_cycle;Max_cycle;Signal;HPM_P1;HPM_P2
2022/07/06 00:00:06;;;;;;;13.38;10.10;;;15.20;72.00;;;;;;5000624;28;20100;-72
2022/07/06 00:02:31;;;;;;;14.15;9.73;;;15.20;72.00;;;;;;5000115;28;20030;-72
2022/07/06 00:04:57;;;;;;;13.60;10.98;;;15.10;71.90;;;;;;5008690;28;20037;-72
2022/07/06 00:07:23;;;;;;;12.93;10.10;;;15.10;71.90;;;;;;5001115;28;20088;-72
2022/07/06 00:09:49;;;;;;;14.05;9.75;;;15.10;72.00;;;;;;4990532;28;20045;-72
2022/07/06 00:12:15;;;;;;;13.05;9.05;;;15.00;72.20;;;;;;5000843;28;20038;-72
2022/07/06 00:14:41;;;;;;;13.95;8.50;;;15.00;72.50;;;;;;5006760;28;20029;-72
2022/07/06 00:17:07;;;;;;;14.35;11.40;;;14.90;72.70;;;;;;5001056;28;20044;-72
2022/07/06 00:19:33;;;;;;;13.18;9.70;;;14.90;72.70;;;;;;5008451;28;20034;-72
2022/07/06 00:21:58;;;;;;;13.32;9.32;;;14.80;72.90;;;;;;4992499;28;20394;-72
2022/07/06 00:24:24;;;;;;;13.00;9.70;;;14.80;73.10;;;;;;5007541;28;20484;-72
2022/07/06 00:26:50;;;;;;;12.45;9.52;;;14.70;73.10;;;;;;5007339;28;20084;-72
2022/07/06 00:29:16;;;;;;;12.38;8.75;;;14.70;73.20;;;;;;5003676;28;20116;-72
2022/07/06 00:31:41;;;;;;;11.73;8.65;;;14.70;73.30;;;;;;5005502;28;20061;-71
2022/07/06 00:34:07;;;;;;;11.73;8.68;;;14.70;73.20;;;;;;5005466;28;20037;-72
2022/07/06 00:36:32;;;;;;;12.05;9.05;;;14.70;73.30;;;;;;5005341;28;20057;-72
2022/07/06 00:38:58;;;;;;;14.50;9.02;;;14.70;73.40;;;;;;5009967;28;20470;-72
2022/07/06 00:41:24;;;;;;;11.85;9.50;;;14.80;73.60;;;;;;5005952;28;20046;-72
2022/07/06 00:43:57;;;;;;;13.88;9.40;;;14.70;73.70;;;;;;5011788;28;20047;-72
2022/07/06 00:46:31;;;;;;;11.65;9.15;;;14.70;73.70;;;;;;5006089;28;20041;-72
2022/07/06 00:48:57;;;;;;;;;;;14.70;73.80;;;;;;5005286;28;20117;-72
2022/07/06 00:51:31;;;;;;;13.20;9.25;;;14.70;73.70;;;;;;5010624;28;20314;-72
2022/07/06 00:54:03;;;;;;;15.90;8.90;;;14.70;73.80;;;;;;4998786;28;20038;-71
2022/07/06 00:56:31;;;;;;;13.60;9.88;;;14.70;73.80;;;;;;4996191;28;20401;-72
2022/07/06 00:58:57;;;;;;;11.80;9.07;;;14.70;74.00;;;;;;5012032;28;20441;-72
2022/07/06 01:01:22;;;;;;;13.38;8.80;;;14.60;74.00;;;;;;5006515;28;20030;-72
2022/07/06 01:03:48;;;;;;;9.65;7.82;;;14.70;74.00;;;;;;4997357;28;20377;-72
2022/07/06 01:06:14;;;;;;;11.77;8.30;;;14.70;74.00;;;;;;5004761;28;20084;-72
2022/07/06 01:08:40;;;;;;;11.25;8.52;;;14.70;74.10;;;;;;5006963;28;20452;-72
2022/07/06 01:11:06;;;;;;;13.73;9.77;;;14.70;74.20;;;;;;4996023;28;20538;-73
2022/07/06 01:13:33;;;;;;;12.15;8.40;;;14.80;74.30;;;;;;5003276;28;20610;-72
2022/07/06 01:15:59;;;;;;;13.20;8.63;;;14.80;74.20;;;;;;4999079;28;20072;-72
2022/07/06 01:18:25;;;;;;;14.57;9.82;;;14.70;74.20;;;;;;4991761;28;20042;-72
2022/07/06 01:20:50;;;;;;;11.38;8.95;;;14.80;74.30;;;;;;4992244;28;20037;-72
2022/07/06 01:23:16;;;;;;;12.88;9.00;;;14.80;74.40;;;;;;4997668;28;20034;-72
2022/07/06 01:25:41;;;;;;;14.85;10.18;;;14.70;74.50;;;;;;5005833;28;20034;-72
2022/07/06 01:28:07;;;;;;;12.85;10.00;;;14.70;74.70;;;;;;5008524;28;20482;-72
2022/07/06 01:30:33;;;;;;;13.00;10.05;;;14.70;74.80;;;;;;5010803;28;20034;-72
2022/07/06 01:32:58;;;;;;;15.10;10.30;;;14.70;74.80;;;;;;5004742;28;20038;-72
2022/07/06 01:35:26;;;;;;;13.07;9.60;;;14.70;74.80;;;;;;5003062;28;20054;-72
2022/07/06 01:37:51;;;;;;;17.75;10.98;;;14.70;74.90;;;;;;5002989;28;20042;-72
2022/07/06 01:40:17;;;;;;;14.93;10.40;;;14.70;75.20;;;;;;5011912;28;20552;-72
2022/07/06 01:42:43;;;;;;;11.32;9.52;;;14.70;75.10;;;;;;5011668;28;20038;-72
2022/07/06 01:45:09;;;;;;;13.77;9.82;;;14.70;75.20;;;;;;5006954;28;20038;-73
2022/07/06 01:47:35;;;;;;;12.48;9.75;;;14.70;75.30;;;;;;5008979;28;20033;-72
2022/07/06 01:50:05;;;;;;;13.57;10.63;;;14.70;75.40;;;;;;5011539;28;20037;-73
2022/07/06 01:52:30;;;;;;;13.80;10.90;;;14.70;75.20;;;;;;5009674;28;20488;-72
2022/07/06 01:54:57;;;;;;;12.23;10.02;;;14.70;75.20;;;;;;5012187;28;20117;-72
2022/07/06 01:57:22;;;;;;;13.85;10.02;;;14.60;75.20;;;;;;5011076;28;20527;-72
2022/07/06 01:59:48;;;;;;;14.55;9.65;;;14.60;75.30;;;;;;5008972;28;20034;-71
2022/07/06 02:02:15;;;;;;;13.05;10.68;;;14.60;75.50;;;;;;5003108;28;20088;-71
2022/07/06 02:04:40;;;;;;;15.48;10.77;;;14.60;75.60;;;;;;4996128;28;20038;-71
2022/07/06 02:07:06;;;;;;;13.48;10.40;;;14.60;75.60;;;;;;5011031;28;20437;-71
2022/07/06 02:09:31;;;;;;;17.00;10.55;;;14.50;75.70;;;;;;5006540;28;20427;-71
2022/07/06 02:11:57;;;;;;;13.75;9.73;;;14.50;75.70;;;;;;4999303;28;20049;-71
2022/07/06 02:14:23;;;;;;;13.98;10.23;;;14.40;75.90;;;;;;5004506;28;20038;-71
2022/07/06 02:16:48;;;;;;;14.77;10.60;;;14.40;75.90;;;;;;5010219;28;20034;-71
2022/07/06 02:19:14;;;;;;;12.63;10.07;;;14.40;76.00;;;;;;5004505;28;20034;-73
2022/07/06 02:21:40;;;;;;;13.48;9.82;;;14.40;76.00;;;;;;4998865;28;20034;-73
2022/07/06 02:24:06;;;;;;;11.88;9.27;;;14.40;76.00;;;;;;5009867;28;20445;-73
2022/07/06 02:26:33;;;;;;;14.48;10.23;;;14.30;76.10;;;;;;5010836;28;20038;-72
2022/07/06 02:28:59;;;;;;;14.80;10.98;;;14.30;76.20;;;;;;4994450;28;20038;-73
2022/07/06 02:31:24;;;;;;;11.85;9.77;;;14.30;76.40;;;;;;4994271;28;20103;-72
2022/07/06 02:33:50;;;;;;;13.10;9.32;;;14.20;76.60;;;;;;5001753;28;20030;-72
2022/07/06 02:36:16;;;;;;;14.25;9.60;;;14.30;76.50;;;;;;5009273;28;20099;-72
2022/07/06 02:38:41;;;;;;;13.43;9.80;;;14.30;76.60;;;;;;5010654;28;20417;-72
2022/07/06 02:41:07;;;;;;;12.48;9.88;;;14.20;76.60;;;;;;5008752;28;20034;-72
2022/07/06 02:43:33;;;;;;;13.20;9.20;;;14.20;76.70;;;;;;5007151;28;20022;-73
2022/07/06 02:45:58;;;;;;;11.63;9.57;;;14.20;76.70;;;;;;5007957;28;20774;-72
2022/07/06 02:48:24;;;;;;;13.15;8.98;;;14.10;76.60;;;;;;5000652;28;20051;-73
2022/07/06 02:50:50;;;;;;;15.32;9.35;;;14.10;76.70;;;;;;5004393;28;20034;-72
2022/07/06 02:53:19;;;;;;;12.25;9.05;;;14.10;76.90;;;;;;4998873;28;20034;-72
2022/07/06 02:55:44;;;;;;;12.88;9.13;;;14.00;77.10;;;;;;4999773;28;20465;-72
2022/07/06 02:58:10;;;;;;;13.02;9.25;;;13.90;77.30;;;;;;5005210;28;20045;-72
2022/07/06 03:00:36;;;;;;;10.73;8.45;;;13.90;77.50;;;;;;4998521;28;20034;-72
2022/07/06 03:03:01;;;;;;;11.38;8.27;;;13.90;77.50;;;;;;4999508;28;20045;-73
2022/07/06 03:05:27;;;;;;;11.65;8.90;;;13.90;77.40;;;;;;5001708;28;20544;-73
2022/07/06 03:07:52;;;;;;;11.57;8.20;;;13.90;77.40;;;;;;5004450;28;20096;-72
2022/07/06 03:10:18;;;;;;;10.95;7.90;;;13.90;77.40;;;;;;4997766;28;20039;-72
2022/07/06 03:12:44;;;;;;;13.48;8.50;;;13.80;77.50;;;;;;5006807;28;20041;-72
2022/07/06 03:15:10;;;;;;;9.02;7.35;;;13.80;77.70;;;;;;4999790;28;20550;-73
2022/07/06 03:17:36;;;;;;;12.45;8.05;;;13.80;77.80;;;;;;5004114;28;20419;-72
2022/07/06 03:20:04;;;;;;;11.45;8.38;;;13.80;77.70;;;;;;5008388;28;20048;-73
2022/07/06 03:22:30;;;;;;;11.15;8.20;;;13.80;77.70;;;;;;5009847;28;20522;-72
2022/07/06 03:24:55;;;;;;;11.18;8.43;;;13.70;77.80;;;;;;5002050;28;20125;-73
2022/07/06 03:27:21;;;;;;;11.88;7.53;;;13.70;77.80;;;;;;4996193;28;20030;-72
2022/07/06 03:29:47;;;;;;;11.77;8.00;;;13.70;77.70;;;;;;5006074;28;20038;-72
2022/07/06 03:32:12;;;;;;;11.15;8.10;;;13.70;77.70;;;;;;5007149;28;20567;-72
2022/07/06 03:34:38;;;;;;;12.18;8.15;;;13.70;77.80;;;;;;5010738;28;20389;-72
2022/07/06 03:37:04;;;;;;;11.10;8.32;;;13.60;78.00;;;;;;5004641;28;20498;-72
2022/07/06 03:39:29;;;;;;;11.32;8.57;;;13.60;77.90;;;;;;4995562;28;20368;-72
2022/07/06 03:41:55;;;;;;;10.85;7.78;;;13.60;77.80;;;;;;5005015;28;20076;-73
2022/07/06 03:44:20;;;;;;;10.73;8.05;;;13.70;77.80;;;;;;5010302;28;20477;-72
2022/07/06 03:46:46;;;;;;;12.60;8.23;;;13.60;77.50;;;;;;5000298;28;20031;-72
2022/07/06 03:49:12;;;;;;;12.18;7.93;;;13.60;77.50;;;;;;5002497;28;20105;-72
2022/07/06 03:51:39;;;;;;;10.10;7.07;;;13.70;77.60;;;;;;4995824;28;20038;-72
2022/07/06 03:54:05;;;;;;;10.07;7.53;;;13.70;77.70;;;;;;5000703;28;20375;-73
2022/07/06 03:56:32;;;;;;;9.98;7.55;;;13.70;77.70;;;;;;5009434;28;20520;-72
2022/07/06 03:59:01;;;;;;;12.10;8.02;;;13.70;77.80;;;;;;5002858;28;20046;-72
2022/07/06 04:01:27;;;;;;;8.27;6.47;;;13.80;77.60;;;;;;5005324;28;20128;-72
2022/07/06 04:03:53;;;;;;;9.68;7.25;;;13.90;77.30;;;;;;5004427;28;20036;-72
2022/07/06 04:06:19;;;;;;;10.35;7.03;;;14.00;77.10;;;;;;5004600;28;20030;-72
2022/07/06 04:08:45;;;;;;;11.38;6.88;;;14.10;76.90;;;;;;5006035;28;20053;-72
2022/07/06 04:11:11;;;;;;;10.63;7.55;;;14.10;76.60;;;;;;4992126;28;20038;-73
2022/07/06 04:13:38;;;;;;;10.68;7.55;;;14.20;76.60;;;;;;5001947;28;20034;-72
2022/07/06 04:16:05;;;;;;;9.68;7.03;;;14.30;76.40;;;;;;5001777;28;20070;-73
2022/07/06 04:18:31;;;;;;;12.75;8.82;;;14.30;76.30;;;;;;5009113;28;20045;-72
2022/07/06 04:20:57;;;;;;;10.88;7.28;;;14.40;76.00;;;;;;5000678;28;20030;-73
2022/07/06 04:23:23;;;;;;;12.88;8.05;;;14.50;75.90;;;;;;5013444;28;20025;-72
2022/07/06 04:25:49;;;;;;;12.40;7.97;;;14.50;75.80;;;;;;5013956;28;20462;-72
2022/07/06 04:28:15;;;;;;;10.98;7.63;;;14.50;75.70;;;;;;5003653;28;20054;-72
2022/07/06 04:30:40;;;;;;;10.77;7.57;;;14.60;75.60;;;;;;5005425;28;20030;-72
2022/07/06 04:33:06;;;;;;;13.25;7.63;;;14.60;75.60;;;;;;5004639;28;20069;-73
2022/07/06 04:35:32;;;;;;;10.40;7.88;;;14.60;75.40;;;;;;5004476;28;20048;-76
2022/07/06 04:37:57;;;;;;;10.98;7.28;;;14.70;75.20;;;;;;5010612;28;20038;-76
2022/07/06 04:40:23;;;;;;;12.02;7.93;;;14.80;75.30;;;;;;5010832;28;20377;-76
2022/07/06 04:42:49;;;;;;;12.95;8.32;;;15.00;74.80;;;;;;4994359;28;20033;-75
2022/07/06 04:45:14;;;;;;;11.23;8.10;;;15.10;74.20;;;;;;5001105;28;20030;-76
2022/07/06 04:47:40;;;;;;;16.70;8.57;;;15.10;74.30;;;;;;5003226;28;20482;-75
2022/07/06 04:50:06;;;;;;;14.07;8.82;;;15.20;73.70;;;;;;5005152;28;20073;-76
2022/07/06 04:52:32;;;;;;;13.63;8.52;;;15.40;73.60;;;;;;4994865;28;20056;-75
2022/07/06 04:54:58;;;;;;;13.55;8.30;;;15.60;73.20;;;;;;5010706;28;20046;-76
2022/07/06 04:57:25;;;;;;;12.70;8.88;;;15.70;72.80;;;;;;5003397;28;20116;-76
2022/07/06 04:59:52;;;;;;;14.30;8.48;;;15.80;72.40;;;;;;4997554;28;20120;-76
2022/07/06 05:02:18;;;;;;;13.38;9.50;;;15.90;71.80;;;;;;5005552;28;20034;-76
2022/07/06 05:04:43;;;;;;;14.15;8.20;;;16.00;71.10;;;;;;4998636;28;20038;-76
2022/07/06 05:07:09;;;;;;;17.23;9.18;;;16.00;71.10;;;;;;4994027;28;20030;-76
2022/07/06 05:09:35;;;;;;;14.57;9.13;;;16.10;70.60;;;;;;5006487;28;20047;-76
2022/07/06 05:12:00;;;;;;;13.43;7.97;;;16.10;70.50;;;;;;5000227;28;20049;-78
2022/07/06 05:14:26;;;;;;;12.23;7.13;;;16.10;70.50;;;;;;5001814;28;20037;-76
2022/07/06 05:16:52;;;;;;;12.25;8.02;;;16.30;70.40;;;;;;5003735;28;20425;-75
2022/07/06 05:19:17;;;;;;;12.02;7.43;;;16.30;69.70;;;;;;4998194;28;20461;-76
2022/07/06 05:21:43;;;;;;;11.00;7.88;;;16.30;70.00;;;;;;5008020;28;20036;-76
2022/07/06 05:24:09;;;;;;;13.38;7.95;;;16.30;70.00;;;;;;5000361;28;20034;-76
2022/07/06 05:26:34;;;;;;;13.30;7.32;;;16.50;69.30;;;;;;5003215;28;20096;-76
2022/07/06 05:29:00;;;;;;;14.00;8.13;;;16.60;69.20;;;;;;5001759;28;20042;-75
2022/07/06 05:31:25;;;;;;;13.82;8.80;;;16.60;68.70;;;;;;4998649;28;20393;-75
2022/07/06 05:33:51;;;;;;;14.13;8.35;;;16.60;68.90;;;;;;5001393;28;20121;-76
2022/07/06 05:36:18;;;;;;;11.38;7.57;;;16.50;68.90;;;;;;5010405;28;20042;-76
2022/07/06 05:38:43;;;;;;;14.52;7.88;;;16.60;68.80;;;;;;5001554;28;20368;-75
2022/07/06 05:41:09;;;;;;;12.85;7.88;;;16.70;68.30;;;;;;5009432;28;20504;-76
2022/07/06 05:43:38;;;;;;;14.80;8.13;;;16.60;68.30;;;;;;5012136;28;20440;-75
2022/07/06 05:46:04;;;;;;;11.35;7.20;;;16.70;68.60;;;;;;5003950;28;20038;-76
2022/07/06 05:51:14;;;;;;;14.98;8.23;;;16.70;68.60;;;;;;5011231;28;20061;-76
2022/07/06 05:53:40;;;;;;;11.93;6.90;;;16.70;68.20;;;;;;5004416;28;20482;-76
2022/07/06 05:56:06;;;;;;;13.20;7.30;;;16.70;68.00;;;;;;5011358;28;20034;-76
2022/07/06 05:58:31;;;;;;;14.68;7.55;;;16.90;68.10;;;;;;5004129;28;20402;-76
2022/07/06 06:00:57;;;;;;;13.52;8.63;;;17.10;67.50;;;;;;5004295;28;20034;-76
2022/07/06 06:03:23;;;;;;;13.60;7.07;;;17.30;66.30;;;;;;5007441;28;20053;-76
2022/07/06 06:05:49;;;;;;;13.63;7.07;;;17.60;65.60;;;;;;5010573;28;20374;-76
2022/07/06 06:08:15;;;;;;;11.48;6.63;;;17.70;64.80;;;;;;5003297;28;20399;-75
2022/07/06 06:10:41;;;;;;;10.68;6.47;;;17.80;64.60;;;;;;5005317;28;20048;-76
2022/07/06 06:13:06;;;;;;;14.15;6.30;;;18.10;64.70;;;;;;5000109;28;20034;-76
2022/07/06 06:15:32;;;;;;;12.93;6.30;;;18.10;63.70;;;;;;4999872;28;20370;-76
2022/07/06 06:17:58;;;;;;;12.82;6.95;;;18.10;63.60;;;;;;5003513;28;20042;-75
2022/07/06 06:20:24;;;;;;;11.70;6.20;;;18.10;63.80;;;;;;5009651;28;20125;-76
2022/07/06 06:22:56;;;;;;;16.13;7.38;;;18.00;64.70;;;;;;4999766;28;20038;-76
2022/07/06 06:25:27;;;;;;;13.43;6.30;;;18.20;64.40;;;;;;5010215;28;20030;-76
2022/07/06 06:27:53;;;;;;;18.13;7.78;;;18.50;64.60;;;;;;5005901;28;20043;-76
2022/07/06 06:30:19;;;;;;;13.32;6.80;;;18.60;64.50;;;;;;4993966;28;20030;-75
2022/07/06 06:32:44;;;;;;;10.80;6.35;;;18.60;64.40;;;;;;5000611;28;20040;-75
2022/07/06 06:35:10;;;;;;;16.13;7.53;;;18.80;63.30;;;;;;5004743;28;20441;-75
2022/07/06 06:37:36;;;;;;;14.35;7.50;;;18.90;63.20;;;;;;5000211;28;20088;-75
2022/07/06 06:40:03;;;;;;;11.45;7.60;;;19.00;62.80;;;;;;5001235;28;20042;-76
2022/07/06 06:42:29;;;;;;;12.77;7.05;;;19.00;63.10;;;;;;5007047;28;20030;-75
2022/07/06 06:44:55;;;;;;;12.63;7.20;;;19.10;62.50;;;;;;4997873;28;20038;-75
2022/07/06 06:47:20;;;;;;;15.02;7.80;;;19.20;61.50;;;;;;4998851;28;20065;-75
2022/07/06 06:49:47;;;;;;;12.77;7.78;;;19.30;62.00;;;;;;4999758;28;20039;-75
2022/07/06 06:52:13;;;;;;;12.48;6.88;;;19.30;61.50;;;;;;5001877;28;20070;-76
2022/07/06 06:54:38;;;;;;;15.23;8.55;;;19.40;61.90;;;;;;5001533;28;20076;-74
2022/07/06 06:57:04;;;;;;;13.93;8.13;;;19.40;61.80;;;;;;5002642;28;20033;-75
2022/07/06 06:59:30;;;;;;;13.55;7.93;;;19.50;60.50;;;;;;4993217;28;20069;-74
2022/07/06 07:01:55;;;;;;;11.55;8.05;;;19.40;60.80;;;;;;4991064;28;20045;-74
2022/07/06 07:04:21;;;;;;;13.73;7.93;;;19.30;62.10;;;;;;4998307;28;20074;-75
2022/07/06 07:06:47;;;;;;;15.30;7.50;;;19.50;61.50;;;;;;5000042;28;20122;-75
2022/07/06 07:09:12;;;;;;;11.73;7.35;;;19.70;60.60;;;;;;5009046;28;20034;-75
2022/07/06 07:11:38;;;;;;;13.20;7.93;;;20.00;61.20;;;;;;5002497;28;20042;-75
2022/07/06 07:14:04;;;;;;;13.82;8.10;;;20.10;60.10;;;;;;5002614;28;20058;-75
2022/07/06 07:16:29;;;;;;;14.73;8.25;;;19.90;60.00;;;;;;5004341;28;20054;-75
2022/07/06 07:18:55;;;;;;;14.57;8.30;;;20.00;59.80;;;;;;4991667;28;20490;-75
2022/07/06 07:21:21;;;;;;;13.93;7.80;;;20.10;59.70;;;;;;5003095;28;20049;-75
2022/07/06 07:23:47;;;;;;;19.85;9.18;;;20.20;59.70;;;;;;5006441;28;20045;-75
2022/07/06 07:26:12;;;;;;;10.57;7.55;;;20.20;59.00;;;;;;4997716;28;20038;-75
2022/07/06 07:28:38;;;;;;;13.63;8.63;;;20.20;58.70;;;;;;5001562;28;20042;-75
2022/07/06 07:31:04;;;;;;;14.77;8.85;;;20.40;58.40;;;;;;4998832;28;20045;-75
2022/07/06 07:33:30;;;;;;;12.73;8.95;;;20.60;57.70;;;;;;4997243;28;20113;-75
2022/07/06 07:35:56;;;;;;;12.77;8.45;;;20.50;57.90;;;;;;5001282;28;20142;-75
2022/07/06 07:38:21;;;;;;;13.77;7.93;;;20.60;56.90;;;;;;5002289;28;20073;-75
2022/07/06 07:40:47;;;;;;;13.32;7.63;;;20.60;56.20;;;;;;4998550;28;20470;-75
2022/07/06 07:43:13;;;;;;;13.38;7.35;;;20.60;55.80;;;;;;5009139;28;20042;-76
2022/07/06 07:45:39;;;;;;;14.40;7.68;;;20.60;56.20;;;;;;5010359;28;20040;-75
2022/07/06 07:48:05;;;;;;;13.95;7.95;;;20.90;55.20;;;;;;5007056;28;20100;-76
2022/07/06 07:50:31;;;;;;;13.75;7.03;;;20.90;55.60;;;;;;5004655;28;20046;-76
2022/07/06 07:52:57;;;;;;;14.43;7.60;;;21.10;55.50;;;;;;5005467;28;20037;-76
2022/07/06 07:55:22;;;;;;;14.88;7.40;;;21.40;54.70;;;;;;5008577;28;20066;-76
2022/07/06 07:57:48;;;;;;;10.95;6.78;;;21.60;53.50;;;;;;5005336;28;20467;-76
2022/07/06 08:00:14;;;;;;;13.52;6.50;;;21.80;52.40;;;;;;5005307;28;20501;-76
2022/07/06 08:02:40;;;;;;;13.05;6.03;;;21.80;52.40;;;;;;4993242;28;20034;-76
2022/07/06 08:05:06;;;;;;;11.98;7.38;;;22.00;51.80;;;;;;5009678;28;20041;-76
2022/07/06 08:07:32;;;;;;;14.18;7.13;;;22.10;51.40;;;;;;5013668;28;20064;-76
2022/07/06 08:09:58;;;;;;;10.27;5.65;;;22.20;51.20;;;;;;4996275;28;20038;-76
2022/07/06 08:12:23;;;;;;;13.55;7.55;;;22.50;51.40;;;;;;4999922;28;20045;-76
2022/07/06 08:14:49;;;;;;;10.32;6.82;;;22.50;51.40;;;;;;5006825;28;20455;-74
2022/07/06 08:17:15;;;;;;;12.57;6.75;;;22.70;50.40;;;;;;4993500;28;20038;-74
2022/07/06 08:19:41;;;;;;;13.27;6.80;;;22.80;50.80;;;;;;5003249;28;20162;-74
2022/07/06 08:22:07;;;;;;;13.10;6.97;;;22.80;51.00;;;;;;5003062;28;20129;-73
2022/07/06 08:24:34;;;;;;;16.80;7.13;;;22.70;50.90;;;;;;5009597;28;20096;-74
2022/07/06 08:27:00;;;;;;;11.88;6.00;;;22.80;50.70;;;;;;5004552;28;20053;-74
2022/07/06 08:29:26;;;;;;;13.40;6.35;;;23.10;49.20;;;;;;4989345;28;20038;-74
2022/07/06 08:31:51;;;;;;;12.57;5.68;;;23.50;48.10;;;;;;4998936;28;20038;-77
2022/07/06 08:34:17;;;;;;;15.50;6.18;;;23.60;49.40;;;;;;5007623;28;20041;-76
2022/07/06 08:36:42;;;;;;;13.10;6.88;;;23.60;48.50;;;;;;5007740;28;20468;-73
2022/07/06 08:39:08;;;;;;;12.57;6.15;;;23.10;48.80;;;;;;4998019;28;20042;-75
2022/07/06 08:41:36;;;;;;;10.10;5.43;;;22.90;50.40;;;;;;4994962;28;20030;-75
2022/07/06 08:44:02;;;;;;;13.38;5.88;;;22.90;50.50;;;;;;5009090;28;20057;-75
2022/07/06 08:46:29;;;;;;;10.70;4.85;;;23.10;50.70;;;;;;5010419;28;20042;-75
2022/07/06 08:48:56;;;;;;;10.48;4.60;;;23.30;49.60;;;;;;4996861;28;20042;-75
2022/07/06 08:51:23;;;;;;;12.23;4.20;;;23.30;49.80;;;;;;5006738;28;20038;-75
2022/07/06 08:53:50;;;;;;;9.80;4.30;;;23.00;49.70;;;;;;5008519;28;20049;-75
2022/07/06 08:56:16;;;;;;;12.27;4.75;;;22.80;50.30;;;;;;5002133;28;20485;-75
2022/07/06 08:58:42;;;;;;;10.65;4.43;;;22.80;49.50;;;;;;5008253;28;20046;-75
2022/07/06 09:01:10;;;;;;;10.25;4.20;;;22.80;50.40;;;;;;5003466;28;20441;-75
2022/07/06 09:03:36;;;;;;;12.18;4.20;;;23.00;49.40;;;;;;5002378;28;20105;-75
2022/07/06 09:06:03;;;;;;;14.07;4.85;;;23.20;48.80;;;;;;5001746;28;20049;-75
2022/07/06 09:08:31;;;;;;;10.70;4.65;;;23.00;49.90;;;;;;5010075;28;20045;-75
2022/07/06 09:10:57;;;;;;;12.15;4.50;;;23.00;49.70;;;;;;5003083;28;20062;-76
2022/07/06 09:13:22;;;;;;;13.60;4.93;;;23.20;49.70;;;;;;5012499;28;20069;-75
2022/07/06 09:15:48;;;;;;;12.05;5.05;;;23.50;49.80;;;;;;5013941;28;20555;-75
2022/07/06 09:18:14;;;;;;;9.52;4.82;;;23.30;49.30;;;;;;5005959;28;20045;-75
2022/07/06 09:20:43;;;;;;;12.93;4.38;;;23.40;48.20;;;;;;5001254;28;20057;-75
2022/07/06 09:23:09;;;;;;;10.18;4.80;;;23.60;48.70;;;;;;5012238;28;20041;-75
2022/07/06 09:25:35;;;;;;;10.20;4.30;;;23.70;48.80;;;;;;5012918;28;20030;-75
2022/07/06 09:28:01;;;;;;;12.38;4.28;;;23.70;50.10;;;;;;5003779;28;20056;-76
2022/07/06 09:30:28;;;;;;;8.50;4.05;;;23.70;50.10;;;;;;5006520;28;20109;-75
2022/07/06 09:32:56;;;;;;;14.23;5.07;;;23.80;50.00;;;;;;5010490;28;20036;-75
2022/07/06 09:35:26;;;;;;;12.73;4.72;;;23.70;48.90;;;;;;4997876;28;20406;-75
2022/07/06 09:38:01;;;;;;;12.00;4.53;;;23.40;49.50;;;;;;4999553;28;20039;-75
2022/07/06 09:40:28;;;;;;;10.32;4.45;;;23.40;50.40;;;;;;5011436;28;20125;-75
2022/07/06 09:43:21;;;;;;;14.38;4.95;;;23.50;50.40;;;;;;4996218;28;20042;-75
2022/07/06 09:45:52;;;;;;;12.00;4.32;;;23.60;48.80;;;;;;5010594;28;20038;-75
2022/07/06 09:48:23;;;;;;;13.10;5.13;;;23.50;49.00;;;;;;4993223;28;20122;-75
2022/07/06 09:50:50;;;;;;;13.25;4.28;;;23.50;50.00;;;;;;5006237;28;20042;-75
2022/07/06 09:53:17;;;;;;;7.43;3.97;;;23.50;50.40;;;;;;5001653;28;20049;-75
2022/07/06 09:55:48;;;;;;;10.98;4.07;;;23.60;48.90;;;;;;4999329;28;20034;-75
2022/07/06 09:58:15;;;;;;;11.70;4.00;;;23.70;49.40;;;;;;5007654;28;20030;-75
2022/07/06 10:00:45;;;;;;;12.55;4.07;;;23.50;48.50;;;;;;5008503;28;20509;-76
2022/07/06 10:03:11;;;;;;;12.10;5.10;;;23.50;49.50;;;;;;5000458;28;20038;-76
2022/07/06 10:05:39;;;;;;;13.90;4.93;;;23.50;49.40;;;;;;4995565;28;20049;-76
2022/07/06 10:08:08;;;;;;;8.23;3.95;;;23.50;49.40;;;;;;5009184;28;20470;-75
2022/07/06 10:10:35;;;;;;;11.65;4.75;;;23.40;50.30;;;;;;5001921;28;20034;-76
2022/07/06 10:13:02;;;;;;;9.80;4.05;;;23.40;49.60;;;;;;5003655;28;20039;-76
2022/07/06 10:15:33;;;;;;;11.70;4.32;;;23.40;48.70;;;;;;5008529;28;20074;-76
2022/07/06 10:18:00;;;;;;;11.18;4.32;;;23.50;50.10;;;;;;4998165;28;20439;-76
2022/07/06 10:20:31;;;;;;;12.38;4.68;;;23.90;49.20;;;;;;4997887;28;20042;-76
2022/07/06 10:22:59;;;;;;;9.75;4.20;;;24.30;47.00;;;;;;5009794;28;20026;-76
2022/07/06 10:25:26;;;;;;;11.27;5.13;;;24.40;47.00;;;;;;4999998;28;20116;-76
2022/07/06 10:27:54;;;;;;;8.70;4.40;;;24.40;46.20;;;;;;5009090;28;20048;-76
2022/07/06 10:30:21;;;;;;;11.55;4.60;;;24.70;47.00;;;;;;5011083;28;20037;-76
2022/07/06 10:32:50;;;;;;;9.77;4.28;;;25.00;45.30;;;;;;5010050;28;20032;-76
2022/07/06 10:35:18;;;;;;;10.77;3.78;;;25.30;44.60;;;;;;5008493;28;20042;-76
2022/07/06 10:37:44;;;;;;;13.77;4.32;;;25.30;45.40;;;;;;5010311;28;20466;-76
2022/07/06 10:42:59;;;;;;;11.60;3.90;;;25.10;44.60;;;;;;5010459;28;20040;-76
2022/07/06 10:45:28;;;;;;;13.63;3.90;;;25.10;44.40;;;;;;5006016;28;20046;-76
2022/07/06 10:48:12;;;;;;;10.20;4.10;;;25.20;44.70;;;;;;5002433;28;20129;-76
2022/07/06 10:50:39;;;;;;;9.88;3.97;;;25.00;44.40;;;;;;5009927;28;20109;-76
2022/07/06 10:53:13;;;;;;;13.32;4.82;;;25.00;44.20;;;;;;5001443;28;20042;-76
2022/07/06 10:55:44;;;;;;;10.07;3.90;;;25.20;44.60;;;;;;5004778;28;20046;-76
2022/07/06 10:58:10;;;;;;;12.55;4.78;;;25.20;44.60;;;;;;5008125;28;20038;-76
2022/07/06 11:00:55;;;;;;;8.65;4.43;;;25.40;44.50;;;;;;5003438;28;20037;-76
2022/07/06 11:03:35;;;;;;;7.50;3.92;;;24.80;46.00;;;;;;5005447;28;20069;-76
2022/07/06 11:06:05;;;;;;;10.50;3.95;;;24.80;44.60;;;;;;5007061;28;20041;-76
2022/07/06 11:08:54;;;;;;;9.23;3.60;;;25.20;45.10;;;;;;5002721;28;20042;-76
2022/07/06 11:11:21;;;;;;;9.45;4.13;;;25.60;43.70;;;;;;5007750;28;20042;-76
2022/07/06 11:13:51;;;;;;;12.27;3.65;;;25.20;45.10;;;;;;5008821;28;20415;-75
2022/07/06 11:16:18;;;;;;;9.75;4.55;;;25.40;46.40;;;;;;5005558;28;20121;-76
2022/07/06 11:19:00;;;;;;;8.05;4.03;;;25.50;43.50;;;;;;4998858;28;20066;-76
2022/07/06 11:21:49;;;;;;;8.68;4.15;;;25.70;43.60;;;;;;4996922;28;20034;-76
2022/07/06 11:24:28;;;;;;;10.00;5.13;;;26.00;43.90;;;;;;5007230;28;20069;-76
2022/07/06 11:26:56;;;;;;;9.60;4.43;;;25.60;42.70;;;;;;5010022;28;20046;-76
2022/07/06 11:29:24;;;;;;;9.85;4.70;;;25.20;43.60;;;;;;4991854;28;20042;-76
2022/07/06 11:31:54;;;;;;;10.90;4.95;;;25.70;43.40;;;;;;5009941;28;20033;-76
2022/07/06 11:34:23;;;;;;;12.00;6.03;;;25.50;42.90;;;;;;5000397;28;20034;-76
2022/07/06 11:36:54;;;;;;;11.15;4.75;;;25.00;43.20;;;;;;5007888;28;20490;-76
2022/07/06 11:39:20;;;;;;;9.57;4.47;;;24.60;45.90;;;;;;5008260;28;20141;-75
2022/07/06 11:41:45;;;;;;;11.30;5.53;;;25.10;44.90;;;;;;4994931;28;20541;-76
2022/07/06 11:44:11;;;;;;;10.20;4.43;;;25.40;44.50;;;;;;5007999;28;20046;-76
2022/07/06 11:46:37;;;;;;;10.73;5.43;;;25.60;44.30;;;;;;4995070;28;20133;-76
2022/07/06 11:49:06;;;;;;;11.60;5.05;;;25.80;43.80;;;;;;5001747;28;20046;-77
2022/07/06 11:51:42;;;;;;;11.18;5.53;;;25.60;44.40;;;;;;5007729;28;20037;-76
2022/07/06 11:54:17;;;;;;;10.05;5.00;;;25.80;43.70;;;;;;5009812;28;20050;-76
2022/07/06 11:57:00;;;;;;;10.00;5.50;;;26.00;42.80;;;;;;4999279;28;20042;-76
2022/07/06 11:59:31;;;;;;;11.45;6.30;;;26.20;44.40;;;;;;5010012;28;20096;-76
2022/07/06 12:02:06;;;;;;;12.05;7.13;;;26.00;42.80;;;;;;5001897;28;20065;-76
2022/07/06 12:04:35;;;;;;;14.38;7.50;;;26.10;44.00;;;;;;5021496;28;20037;-76
2022/07/06 12:07:07;;;;;;;11.75;6.68;;;26.10;42.10;;;;;;5007047;28;20080;-77
2022/07/06 12:09:35;;;;;;;10.93;6.20;;;26.10;43.70;;;;;;5008509;28;20042;-76
2022/07/06 12:12:02;;;;;;;11.40;7.00;;;25.90;43.70;;;;;;4989664;28;20038;-76
2022/07/06 12:14:29;;;;;;;13.65;7.78;;;26.30;42.90;;;;;;5000194;28;20037;-76
2022/07/06 12:16:56;;;;;;;13.20;7.30;;;26.60;42.70;;;;;;5001138;28;20041;-76
2022/07/06 12:19:23;;;;;;;9.55;5.65;;;26.80;42.00;;;;;;5009566;28;20049;-76
2022/07/06 12:21:50;;;;;;;11.55;6.82;;;27.20;41.50;;;;;;5008284;28;20390;-76
2022/07/06 12:24:24;;;;;;;13.05;6.13;;;27.50;41.50;;;;;;5004065;28;20039;-76
2022/07/06 12:26:51;;;;;;;;;;;27.70;40.50;;;;;;5009075;28;21350;-75
2022/07/06 12:29:17;;;;;;;11.75;7.20;;;27.90;41.40;;;;;;5008504;28;19991;-76
2022/07/06 12:31:48;;;;;;;11.88;6.75;;;27.70;40.70;;;;;;5011271;28;20034;-75
2022/07/06 12:34:19;;;;;;;13.10;6.40;;;27.70;41.50;;;;;;5011707;28;20034;-76
2022/07/06 12:36:47;;;;;;;11.80;6.90;;;28.10;41.60;;;;;;5010593;28;20113;-75
2022/07/06 12:39:18;;;;;;;12.57;6.38;;;27.50;41.10;;;;;;5004083;28;20463;-75
2022/07/06 12:42:07;;;;;;;11.13;6.18;;;27.50;40.30;;;;;;5009618;28;20026;-75